Aviation Digital Data Service (ADDS)

Output produced by TAFs form (1331 UTC 25 September 2017)
found at http://www.aviationweather.gov/adds/tafs/
 
METAR text: VYYY 251300Z 18005KT 7000 FEW018 FEW025CB 29/26 Q1005
Conditions at: VYYY (YANGON INTL MYAN, VN) observed 1300 UTC 25 September 2017
Temperature: 29.0°C (84°F)
Dewpoint: 26.0°C (79°F) [RH = 84%]
Pressure (altimeter): 29.68 inches Hg (1005.0 mb)
Winds: from the S (180 degrees) at 6 MPH (5 knots; 2.6 m/s)
Visibility: 4 miles (7 km)
Ceiling: at least 12,000 feet AGL
Clouds: few clouds at 1800 feet AGL
few clouds at 2500 feet AGL
Weather: no significant weather observed at this time

Forecast for: VYYY (YANGON INTL MYAN, VN)
Text: TAF VYYY 251100Z 2512/2612 22005KT 7000 BKN015 FEW020CB BKN110
Forecast period: 1200 UTC 25 September 2017 to 1200 UTC 26 September 2017
Forecast type: FROM: standard forecast or significant change
Winds: from the SW (220 degrees) at 6 MPH (5 knots; 2.6 m/s)
Visibility: 4 miles (7 km)
Ceiling: 1500 feet AGL
Clouds: broken clouds at 1500 feet AGL
few clouds at 2000 feet AGL
broken clouds at 11000 feet AGL
Weather: no significant weather forecast for this period
Text: TEMPO 2514/2518 -TSRA
Forecast period: 1400 to 1800 UTC 25 September 2017
Forecast type: TEMPORARY: The following changes expected for less than half the time period
Weather: -TSRA  (light rain associated with thunderstorm(s))